createdAt,value
2023-01-18T00:01:13.194Z,4.53
2023-01-18T00:03:42.096Z,5.73
2023-01-18T00:06:10.819Z,5.43
2023-01-18T00:08:39.460Z,4.50
2023-01-18T00:11:12.512Z,4.97
2023-01-18T00:13:39.862Z,6.07
2023-01-18T00:16:15.771Z,4.73
2023-01-18T00:18:44.281Z,6.13
2023-01-18T00:21:12.362Z,5.47
2023-01-18T00:23:39.560Z,5.63
2023-01-18T00:26:09.336Z,4.93
2023-01-18T00:28:37.076Z,4.97
2023-01-18T00:31:11.596Z,5.77
2023-01-18T00:33:39.133Z,5.00
2023-01-18T00:36:06.620Z,6.10
2023-01-18T00:38:33.787Z,5.20
2023-01-18T00:41:01.050Z,6.03
2023-01-18T00:43:40.414Z,4.43
2023-01-18T00:46:12.974Z,6.13
2023-01-18T00:48:41.326Z,5.27
2023-01-18T00:51:15.207Z,4.90
2023-01-18T00:53:45.498Z,5.60
2023-01-18T00:56:15.697Z,5.03
2023-01-18T00:58:43.139Z,6.13
2023-01-18T01:01:11.623Z,5.43
2023-01-18T01:03:58.142Z,5.23
2023-01-18T01:06:47.248Z,5.67
2023-01-18T01:09:27.243Z,7.33
2023-01-18T01:12:13.293Z,6.10
2023-01-18T01:15:01.845Z,4.50
2023-01-18T01:17:49.059Z,5.00
2023-01-18T01:20:35.275Z,5.43
2023-01-18T01:23:47.041Z,4.63
2023-01-18T01:26:14.218Z,5.23
2023-01-18T01:28:44.044Z,4.83
2023-01-18T01:31:14.237Z,5.33
2023-01-18T01:33:42.043Z,4.00
2023-01-18T01:36:15.103Z,4.77
2023-01-18T01:38:42.400Z,5.43
2023-01-18T01:41:26.568Z,5.27
2023-01-18T01:44:00.960Z,4.50
2023-01-18T01:46:55.678Z,4.73
2023-01-18T01:49:32.816Z,5.03
2023-01-18T01:52:13.374Z,4.00
2023-01-18T01:54:49.396Z,4.07
2023-01-18T01:57:20.884Z,4.63
2023-01-18T01:59:58.619Z,3.10
2023-01-18T02:02:25.979Z,4.20
2023-01-18T02:04:55.420Z,3.33
2023-01-18T02:07:26.159Z,3.30
2023-01-18T02:09:54.265Z,3.60
2023-01-18T02:12:21.589Z,3.23
2023-01-18T02:14:48.853Z,3.27
2023-01-18T02:17:28.303Z,3.30
2023-01-18T02:20:37.798Z,2.97
2023-01-18T02:23:33.160Z,4.20
2023-01-18T02:26:23.872Z,2.80
2023-01-18T02:29:13.611Z,3.17
2023-01-18T02:32:19.372Z,2.70
2023-01-18T02:34:51.863Z,2.57
2023-01-18T02:37:51.971Z,3.47
2023-01-18T02:40:24.482Z,2.70
2023-01-18T02:43:11.191Z,2.80
2023-01-18T02:46:02.123Z,3.23
2023-01-18T02:48:42.626Z,2.30
2023-01-18T02:51:10.661Z,2.80
2023-01-18T02:53:41.927Z,3.40
2023-01-18T02:56:25.798Z,2.07
2023-01-18T02:59:22.085Z,2.60
2023-01-18T03:02:03.006Z,3.17
2023-01-18T03:04:54.215Z,2.53
2023-01-18T03:07:29.964Z,2.20
2023-01-18T03:09:59.217Z,2.00
2023-01-18T03:12:48.909Z,2.17
2023-01-18T03:15:37.634Z,2.43
2023-01-18T03:18:27.143Z,2.30
2023-01-18T03:20:56.776Z,2.20
2023-01-18T03:23:38.668Z,2.27
2023-01-18T03:26:11.845Z,2.00
2023-01-18T03:29:03.821Z,2.27
2023-01-18T03:32:08.223Z,2.33
2023-01-18T03:34:48.824Z,2.17
2023-01-18T03:37:37.673Z,2.93
2023-01-18T03:40:19.484Z,1.70
2023-01-18T03:42:53.828Z,2.10
2023-01-18T03:45:32.383Z,2.27
2023-01-18T03:48:01.216Z,1.90
2023-01-18T03:50:44.402Z,3.20
2023-01-18T03:53:15.172Z,1.97
2023-01-18T03:56:02.549Z,1.60
2023-01-18T03:58:34.994Z,2.17
2023-01-18T04:01:04.091Z,1.93
2023-01-18T04:03:34.737Z,1.60
2023-01-18T04:06:04.101Z,2.00
2023-01-18T04:08:31.286Z,2.00
2023-01-18T04:10:58.441Z,2.10
2023-01-18T04:13:25.604Z,2.50
2023-01-18T04:15:52.802Z,1.70
2023-01-18T04:18:19.990Z,2.00
2023-01-18T04:20:48.954Z,2.00
2023-01-18T04:23:16.149Z,2.70
2023-01-18T04:25:45.695Z,1.73
2023-01-18T04:28:12.877Z,2.83
2023-01-18T04:30:40.085Z,3.67
2023-01-18T04:33:07.238Z,2.67
2023-01-18T04:35:36.213Z,2.47
2023-01-18T04:38:03.472Z,2.07
2023-01-18T04:40:30.671Z,2.20
2023-01-18T04:42:58.089Z,2.00
2023-01-18T04:45:25.522Z,2.47
2023-01-18T04:47:52.672Z,2.17
2023-01-18T04:50:19.819Z,2.60
2023-01-18T04:52:47.175Z,1.70
2023-01-18T04:55:15.374Z,2.07
2023-01-18T04:57:43.755Z,2.00
2023-01-18T05:00:13.124Z,1.97
2023-01-18T05:02:40.359Z,3.00
2023-01-18T05:05:08.131Z,1.93
2023-01-18T05:07:35.363Z,1.90
2023-01-18T05:10:03.447Z,1.67
2023-01-18T05:12:30.910Z,1.40
2023-01-18T05:14:58.073Z,2.57
2023-01-18T05:17:27.405Z,1.50
2023-01-18T05:19:54.980Z,1.33
2023-01-18T05:22:22.979Z,1.40
2023-01-18T05:24:50.161Z,2.50
2023-01-18T05:27:17.347Z,2.07
2023-01-18T05:29:44.616Z,2.13
2023-01-18T05:32:11.800Z,1.70
2023-01-18T05:34:39.030Z,2.40
2023-01-18T05:37:06.636Z,1.57
2023-01-18T05:39:33.925Z,2.00
2023-01-18T05:42:01.449Z,1.90
2023-01-18T05:44:28.826Z,1.70
2023-01-18T05:46:55.970Z,1.67
2023-01-18T05:49:23.191Z,2.17
2023-01-18T05:51:51.507Z,2.27
2023-01-18T05:54:19.967Z,1.70
2023-01-18T05:56:47.234Z,2.63
2023-01-18T05:59:15.542Z,1.83
2023-01-18T06:01:42.835Z,3.67
2023-01-18T06:04:10.193Z,2.03
2023-01-18T06:06:37.456Z,2.40
2023-01-18T06:09:04.642Z,2.40
2023-01-18T06:11:31.887Z,2.73
2023-01-18T06:13:59.328Z,2.97
2023-01-18T06:16:26.677Z,3.10
2023-01-18T06:18:53.847Z,2.20
2023-01-18T06:21:21.285Z,2.07
2023-01-18T06:23:48.533Z,2.10
2023-01-18T06:26:15.698Z,2.67
2023-01-18T06:28:42.865Z,2.10
2023-01-18T06:31:11.488Z,3.10
2023-01-18T06:33:39.566Z,2.43
2023-01-18T06:36:07.084Z,1.90
2023-01-18T06:38:34.421Z,2.07
2023-01-18T06:41:01.651Z,2.63
2023-01-18T06:43:29.557Z,3.20
2023-01-18T06:45:57.904Z,2.17
2023-01-18T06:48:26.507Z,2.23
2023-01-18T06:50:57.088Z,2.30
2023-01-18T06:53:25.392Z,3.80
2023-01-18T06:55:57.120Z,2.67
2023-01-18T06:58:26.020Z,2.33
2023-01-18T07:00:58.198Z,4.53
2023-01-18T07:03:26.953Z,3.23
2023-01-18T07:05:55.261Z,3.17
2023-01-18T07:08:23.698Z,2.30
2023-01-18T07:10:52.538Z,4.00
2023-01-18T07:13:20.986Z,2.13
2023-01-18T07:15:58.007Z,2.60
2023-01-18T07:18:26.807Z,2.57
2023-01-18T07:21:03.245Z,2.27
2023-01-18T07:23:30.808Z,2.57
2023-01-18T07:26:01.629Z,1.90
2023-01-18T07:28:29.928Z,1.77
2023-01-18T07:30:57.696Z,3.83
2023-01-18T07:33:25.250Z,1.87
2023-01-18T07:35:54.114Z,2.07
2023-01-18T07:38:22.291Z,3.47
2023-01-18T07:40:50.184Z,2.60
2023-01-18T07:43:18.254Z,1.67
2023-01-18T07:45:53.397Z,3.30
2023-01-18T07:48:21.844Z,4.20
2023-01-18T07:51:09.539Z,2.57
2023-01-18T07:53:37.741Z,1.93
2023-01-18T07:56:11.643Z,2.57
2023-01-18T07:58:38.828Z,1.80
2023-01-18T08:01:17.769Z,5.23
2023-01-18T08:03:47.826Z,1.40
2023-01-18T08:06:18.708Z,2.57
2023-01-18T08:08:45.967Z,1.87
2023-01-18T08:11:13.133Z,2.17
2023-01-18T08:13:41.747Z,2.20
2023-01-18T08:16:11.784Z,2.57
2023-01-18T08:18:39.978Z,2.27
2023-01-18T08:21:11.197Z,2.53
2023-01-18T08:23:39.171Z,1.70
2023-01-18T08:26:07.519Z,3.30
2023-01-18T08:28:35.144Z,2.50
2023-01-18T08:31:07.640Z,1.50
2023-01-18T08:33:39.493Z,1.73
2023-01-18T08:36:10.717Z,1.97
2023-01-18T08:38:37.936Z,2.43
2023-01-18T08:41:05.424Z,1.67
2023-01-18T08:43:33.377Z,2.97
2023-01-18T08:46:00.618Z,2.47
2023-01-18T08:48:27.844Z,2.60
2023-01-18T08:50:55.005Z,2.17
2023-01-18T08:53:22.203Z,2.07
2023-01-18T08:55:49.932Z,1.40
2023-01-18T08:58:17.092Z,2.17
2023-01-18T09:00:45.645Z,2.83
2023-01-18T09:03:13.184Z,1.30
2023-01-18T09:05:40.458Z,5.40
2023-01-18T09:08:08.253Z,2.50
2023-01-18T09:10:37.379Z,2.70
2023-01-18T09:13:05.824Z,2.20
2023-01-18T09:15:33.013Z,2.17
2023-01-18T09:18:05.440Z,1.83
2023-01-18T09:20:35.935Z,2.13
2023-01-18T09:23:08.038Z,1.97
2023-01-18T09:25:36.915Z,1.63
2023-01-18T09:28:05.057Z,3.40
2023-01-18T09:30:32.976Z,2.90
2023-01-18T09:33:01.039Z,2.40
2023-01-18T09:35:28.634Z,3.00
2023-01-18T09:37:56.787Z,3.30
2023-01-18T09:40:43.061Z,3.10
2023-01-18T09:43:24.605Z,4.00
2023-01-18T09:45:51.723Z,3.10
2023-01-18T09:48:39.648Z,2.60
2023-01-18T09:51:20.423Z,2.73
2023-01-18T09:54:25.949Z,2.50
2023-01-18T09:57:16.386Z,2.17
2023-01-18T09:59:56.105Z,2.30
2023-01-18T10:02:30.873Z,2.10
2023-01-18T10:05:06.856Z,2.17
2023-01-18T10:07:39.014Z,4.43
2023-01-18T10:10:06.976Z,2.17
2023-01-18T10:12:40.948Z,1.67
2023-01-18T10:15:17.684Z,1.50
2023-01-18T10:17:46.071Z,1.53
2023-01-18T10:20:28.157Z,1.50
2023-01-18T10:23:26.907Z,2.90
2023-01-18T10:25:59.998Z,2.73
2023-01-18T10:28:53.120Z,2.23
2023-01-18T10:31:48.556Z,1.40
2023-01-18T10:34:21.591Z,1.60
2023-01-18T10:36:58.455Z,2.60
2023-01-18T10:39:48.563Z,1.67
2023-01-18T10:42:40.315Z,1.90
2023-01-18T10:45:21.835Z,2.33
2023-01-18T10:47:50.546Z,1.93
2023-01-18T10:50:39.969Z,3.13
2023-01-18T10:53:23.763Z,1.80
2023-01-18T10:55:59.761Z,1.80
2023-01-18T10:58:53.995Z,2.70
2023-01-18T11:01:22.497Z,4.97
2023-01-18T11:03:56.187Z,1.77
2023-01-18T11:06:25.409Z,3.00
2023-01-18T11:08:53.571Z,3.30
2023-01-18T11:11:45.242Z,1.87
2023-01-18T11:14:28.416Z,1.87
2023-01-18T11:17:17.471Z,2.73
2023-01-18T11:19:46.722Z,2.97
2023-01-18T11:22:16.875Z,1.47
2023-01-18T11:24:44.116Z,1.60
2023-01-18T11:27:21.873Z,3.00
2023-01-18T11:29:50.410Z,1.30
2023-01-18T11:32:26.727Z,1.40
2023-01-18T11:35:02.797Z,2.20
2023-01-18T11:37:34.293Z,1.57
2023-01-18T11:40:26.527Z,1.67
2023-01-18T11:43:25.910Z,1.60
2023-01-18T11:45:59.405Z,1.80
2023-01-18T11:48:55.073Z,1.60
2023-01-18T11:51:35.264Z,1.93
2023-01-18T11:54:14.520Z,1.70
2023-01-18T11:56:51.321Z,1.60
2023-01-18T11:59:37.593Z,1.80
2023-01-18T12:02:30.721Z,2.20
2023-01-18T12:05:12.961Z,2.23
2023-01-18T12:08:17.637Z,1.90
2023-01-18T12:11:18.580Z,2.10
2023-01-18T12:14:18.180Z,2.20
2023-01-18T12:17:11.307Z,2.30
2023-01-18T12:19:58.408Z,1.93
2023-01-18T12:22:57.462Z,2.23
2023-01-18T12:26:11.841Z,2.20
2023-01-18T12:29:09.758Z,1.97
2023-01-18T12:31:57.961Z,1.63
2023-01-18T12:34:41.666Z,1.70
2023-01-18T12:37:12.225Z,1.40
2023-01-18T12:39:56.934Z,1.93
2023-01-18T12:42:30.141Z,1.80
2023-01-18T12:45:05.842Z,1.70
2023-01-18T12:47:52.404Z,1.90
2023-01-18T12:50:29.508Z,1.80
2023-01-18T12:53:28.193Z,1.70
2023-01-18T12:55:56.440Z,2.17
2023-01-18T12:58:25.865Z,1.80
2023-01-18T13:01:05.909Z,2.10
2023-01-18T13:03:43.597Z,2.00
2023-01-18T13:06:11.428Z,2.20
2023-01-18T13:08:44.877Z,2.50
2023-01-18T13:11:18.044Z,3.20
2023-01-18T13:13:47.047Z,2.83
2023-01-18T13:16:32.734Z,4.40
2023-01-18T13:19:24.963Z,3.40
2023-01-18T13:22:02.276Z,2.60
2023-01-18T13:24:39.187Z,2.53
2023-01-18T13:27:11.847Z,2.90
2023-01-18T13:29:40.409Z,2.80
2023-01-18T13:32:23.243Z,3.10
2023-01-18T13:35:22.168Z,2.80
2023-01-18T13:37:57.680Z,3.57
2023-01-18T13:40:36.438Z,4.10
2023-01-18T13:43:05.823Z,4.13
2023-01-18T13:45:52.980Z,3.40
2023-01-18T13:48:55.375Z,3.37
2023-01-18T13:51:40.611Z,3.97
2023-01-18T13:54:10.657Z,3.87
2023-01-18T13:56:39.045Z,3.83
2023-01-18T13:59:12.201Z,3.40
2023-01-18T14:01:43.824Z,3.93
2023-01-18T14:04:17.176Z,3.60
2023-01-18T14:06:45.759Z,3.63
2023-01-18T14:09:15.992Z,3.87
2023-01-18T14:11:59.165Z,3.60
2023-01-18T14:14:28.413Z,3.63
2023-01-18T14:17:06.960Z,3.53
2023-01-18T14:20:01.197Z,3.40
2023-01-18T14:22:29.377Z,3.50
2023-01-18T14:25:06.915Z,4.43
2023-01-18T14:27:47.035Z,3.50
2023-01-18T14:30:34.066Z,3.63
2023-01-18T14:33:13.092Z,3.50
2023-01-18T14:35:53.396Z,4.50
2023-01-18T14:38:20.917Z,4.50
2023-01-18T14:40:51.258Z,4.97
2023-01-18T14:43:37.636Z,3.93
2023-01-18T14:46:10.169Z,3.80
2023-01-18T14:48:57.148Z,3.50
2023-01-18T14:51:26.561Z,5.03
2023-01-18T14:53:57.825Z,4.37
2023-01-18T14:56:28.004Z,3.87
2023-01-18T14:58:58.819Z,4.27
2023-01-18T15:01:38.904Z,4.27
2023-01-18T15:04:21.580Z,4.80
2023-01-18T15:07:01.986Z,4.20
2023-01-18T15:09:32.657Z,5.77
2023-01-18T15:12:05.322Z,4.30
2023-01-18T15:14:35.661Z,5.60
2023-01-18T15:17:07.789Z,4.73
2023-01-18T15:19:46.201Z,4.50
2023-01-18T15:22:15.883Z,4.43
2023-01-18T15:24:45.856Z,4.30
2023-01-18T15:27:18.970Z,4.23
2023-01-18T15:29:49.071Z,4.60
2023-01-18T15:32:20.475Z,3.90
2023-01-18T15:34:50.004Z,4.10
2023-01-18T15:37:23.320Z,5.30
2023-01-18T15:40:00.871Z,4.63
2023-01-18T15:42:38.758Z,4.30
2023-01-18T15:45:16.734Z,4.13
2023-01-18T15:47:49.296Z,5.83
2023-01-18T15:50:20.205Z,4.37
2023-01-18T15:52:53.793Z,4.77
2023-01-18T15:55:38.597Z,5.03
2023-01-18T15:58:30.563Z,6.37
2023-01-18T16:01:01.985Z,4.80
2023-01-18T16:03:42.445Z,5.60
2023-01-18T16:06:17.661Z,7.53
2023-01-18T16:09:15.972Z,4.60
2023-01-18T16:11:53.556Z,4.40
2023-01-18T16:14:31.192Z,4.47
2023-01-18T16:17:06.884Z,4.33
2023-01-18T16:19:41.552Z,4.33
2023-01-18T16:22:25.557Z,4.07
2023-01-18T16:24:56.524Z,4.00
2023-01-18T16:27:25.928Z,4.20
2023-01-18T16:30:17.194Z,4.37
2023-01-18T16:32:44.375Z,5.57
2023-01-18T16:35:22.568Z,4.97
2023-01-18T16:37:50.528Z,4.50
2023-01-18T16:40:20.732Z,3.87
2023-01-18T16:43:03.125Z,5.33
2023-01-18T16:45:35.489Z,5.77
2023-01-18T16:48:03.730Z,4.97
2023-01-18T16:50:31.684Z,7.40
2023-01-18T16:52:58.950Z,5.07
2023-01-18T16:55:26.991Z,4.20
2023-01-18T16:57:54.284Z,4.40
2023-01-18T17:00:24.422Z,4.87
2023-01-18T17:02:53.089Z,4.30
2023-01-18T17:05:20.944Z,5.47
2023-01-18T17:07:48.185Z,3.70
2023-01-18T17:10:39.439Z,4.27
2023-01-18T17:13:07.212Z,3.97
2023-01-18T17:15:34.884Z,6.57
2023-01-18T17:18:03.861Z,5.40
2023-01-18T17:20:31.846Z,4.50
2023-01-18T17:23:01.118Z,4.50
2023-01-18T17:25:28.900Z,4.50
2023-01-18T17:27:56.793Z,4.37
2023-01-18T17:30:25.124Z,4.83
2023-01-18T17:32:53.044Z,4.47
2023-01-18T17:35:22.682Z,4.83
2023-01-18T17:37:54.506Z,5.53
2023-01-18T17:40:39.315Z,5.57
2023-01-18T17:43:22.188Z,4.23
2023-01-18T17:46:00.713Z,4.40
2023-01-18T17:48:29.216Z,4.77
2023-01-18T17:50:56.428Z,3.50
2023-01-18T17:53:23.571Z,5.10
2023-01-18T17:55:50.793Z,4.33
2023-01-18T17:58:17.980Z,4.00
2023-01-18T18:00:45.446Z,3.43
2023-01-18T18:03:13.116Z,5.20
2023-01-18T18:05:40.356Z,5.00
2023-01-18T18:08:08.852Z,3.83
2023-01-18T18:10:36.073Z,5.13
2023-01-18T18:13:03.803Z,4.97
2023-01-18T18:15:31.325Z,3.83
2023-01-18T18:17:58.548Z,4.17
2023-01-18T18:20:25.786Z,5.47
2023-01-18T18:22:52.944Z,4.17
2023-01-18T18:25:20.112Z,6.87
2023-01-18T18:27:47.722Z,4.80
2023-01-18T18:30:17.435Z,5.90
2023-01-18T18:32:44.852Z,4.83
2023-01-18T18:35:24.297Z,5.13
2023-01-18T18:37:54.308Z,5.20
2023-01-18T18:40:21.916Z,4.40
2023-01-18T18:43:01.194Z,6.33
2023-01-18T18:45:29.893Z,5.03
2023-01-18T18:47:57.256Z,5.27
2023-01-18T18:50:24.437Z,4.80
2023-01-18T18:52:51.815Z,4.73
2023-01-18T18:55:18.967Z,4.67
2023-01-18T18:57:46.133Z,5.60
2023-01-18T19:00:13.827Z,5.97
2023-01-18T19:02:41.255Z,5.20
2023-01-18T19:05:10.574Z,6.20
2023-01-18T19:07:37.989Z,5.90
2023-01-18T19:10:06.503Z,5.30
2023-01-18T19:12:33.711Z,6.13
2023-01-18T19:15:01.036Z,5.50
2023-01-18T19:17:31.157Z,6.93
2023-01-18T19:20:00.440Z,6.50
2023-01-18T19:22:27.602Z,7.50
2023-01-18T19:24:54.796Z,6.77
2023-01-18T19:27:24.484Z,7.47
2023-01-18T19:29:53.096Z,8.27
2023-01-18T19:32:20.601Z,6.17
2023-01-18T19:34:47.791Z,6.97
2023-01-18T19:37:15.067Z,6.67
2023-01-18T19:39:42.255Z,6.57
2023-01-18T19:42:09.407Z,6.10
2023-01-18T19:44:36.655Z,6.97
2023-01-18T19:47:04.010Z,6.07
2023-01-18T19:49:31.167Z,5.97
2023-01-18T19:51:58.417Z,6.27
2023-01-18T19:54:25.968Z,6.20
2023-01-18T19:56:53.149Z,6.97
2023-01-18T19:59:20.388Z,6.83
2023-01-18T20:01:47.760Z,7.33
2023-01-18T20:04:15.106Z,6.83
2023-01-18T20:06:46.050Z,7.60
2023-01-18T20:09:27.103Z,7.27
2023-01-18T20:12:01.432Z,7.73
2023-01-18T20:14:36.766Z,7.33
2023-01-18T20:17:10.309Z,7.67
2023-01-18T20:19:37.558Z,8.43
2023-01-18T20:22:04.804Z,7.83
2023-01-18T20:24:32.487Z,8.47
2023-01-18T20:27:14.777Z,8.57
2023-01-18T20:29:43.027Z,8.23
2023-01-18T20:32:16.141Z,8.27
2023-01-18T20:34:46.359Z,8.27
2023-01-18T20:37:14.348Z,8.57
2023-01-18T20:39:41.666Z,8.63
2023-01-18T20:42:09.952Z,9.07
2023-01-18T20:44:37.372Z,8.20
2023-01-18T20:47:04.703Z,8.63
2023-01-18T20:49:39.351Z,8.70
2023-01-18T20:52:07.402Z,9.03
2023-01-18T20:54:36.315Z,9.63
2023-01-18T20:57:05.273Z,10.23
2023-01-18T20:59:32.613Z,9.57
2023-01-18T21:01:59.989Z,10.37
2023-01-18T21:04:27.472Z,9.80
2023-01-18T21:06:57.049Z,10.90
2023-01-18T21:09:25.332Z,10.67
2023-01-18T21:11:52.688Z,11.40
2023-01-18T21:14:19.891Z,11.13
2023-01-18T21:16:47.138Z,13.23
2023-01-18T21:19:14.537Z,12.33
2023-01-18T21:21:41.728Z,11.50
2023-01-18T21:24:08.908Z,12.23
2023-01-18T21:26:37.662Z,11.80
2023-01-18T21:29:05.538Z,11.93
2023-01-18T21:31:32.876Z,11.67
2023-01-18T21:34:00.076Z,12.63
2023-01-18T21:36:27.529Z,12.43
2023-01-18T21:38:55.006Z,12.83
2023-01-18T21:41:42.102Z,12.23
2023-01-18T21:44:30.539Z,12.90
2023-01-18T21:46:58.678Z,15.97
2023-01-18T21:50:15.334Z,12.73
2023-01-18T21:52:50.471Z,12.53
2023-01-18T21:55:18.121Z,12.13
2023-01-18T21:57:45.338Z,13.73
2023-01-18T22:00:12.993Z,13.03
2023-01-18T22:02:40.211Z,13.83
2023-01-18T22:05:09.754Z,13.57
2023-01-18T22:07:36.945Z,14.43
2023-01-18T22:10:06.447Z,14.07
2023-01-18T22:12:35.902Z,13.50
2023-01-18T22:15:06.896Z,13.93
2023-01-18T22:17:34.063Z,13.87
2023-01-18T22:20:01.775Z,14.33
2023-01-18T22:22:29.049Z,15.43
2023-01-18T22:24:56.943Z,15.60
2023-01-18T22:27:24.175Z,13.17
2023-01-18T22:29:51.625Z,13.93
2023-01-18T22:32:18.853Z,14.80
2023-01-18T22:34:46.023Z,14.50
2023-01-18T22:37:13.305Z,14.63
2023-01-18T22:39:40.479Z,15.63
2023-01-18T22:42:07.768Z,16.07
2023-01-18T22:44:35.017Z,16.00
2023-01-18T22:47:02.325Z,16.20
2023-01-18T22:49:29.505Z,16.33
2023-01-18T22:51:56.754Z,16.27
2023-01-18T22:54:23.931Z,16.87
2023-01-18T22:56:51.111Z,16.80
2023-01-18T22:59:18.280Z,17.67
2023-01-18T23:01:45.572Z,17.10
2023-01-18T23:04:12.852Z,16.67
2023-01-18T23:06:45.533Z,16.20
2023-01-18T23:09:14.295Z,17.27
2023-01-18T23:11:41.850Z,16.70
2023-01-18T23:14:27.624Z,19.10
2023-01-18T23:17:13.762Z,17.00
2023-01-18T23:19:40.946Z,17.50
2023-01-18T23:22:08.153Z,16.47
2023-01-18T23:24:36.597Z,17.47
2023-01-18T23:27:05.771Z,16.67
2023-01-18T23:29:33.419Z,16.90
2023-01-18T23:32:00.735Z,17.33
2023-01-18T23:34:27.922Z,16.70
2023-01-18T23:36:55.173Z,15.27
2023-01-18T23:39:40.976Z,16.47
2023-01-18T23:42:28.382Z,17.27
2023-01-18T23:45:14.297Z,12.97
2023-01-18T23:48:00.494Z,12.57
2023-01-18T23:50:46.709Z,13.40
2023-01-18T23:53:32.816Z,14.63
2023-01-18T23:56:00.349Z,15.27
2023-01-18T23:58:28.136Z,14.87
